sensor_id;sensor_type;location;lat;lon;timestamp;pressure;altitude;pressure_sealevel;temperature;humidity
58668;BME280;59852;43.086;25.634;2023-04-27T00:01:47;98490.50;;;9.59;81.11
58668;BME280;59852;43.086;25.634;2023-04-27T00:04:12;98493.47;;;9.42;82.73
58668;BME280;59852;43.086;25.634;2023-04-27T00:06:38;98490.72;;;9.56;81.04
58668;BME280;59852;43.086;25.634;2023-04-27T00:09:04;98493.88;;;9.48;83.04
58668;BME280;59852;43.086;25.634;2023-04-27T00:11:29;98502.34;;;9.39;82.33
58668;BME280;59852;43.086;25.634;2023-04-27T00:13:55;98507.09;;;9.09;82.58
58668;BME280;59852;43.086;25.634;2023-04-27T00:16:20;98510.53;;;9.09;83.11
58668;BME280;59852;43.086;25.634;2023-04-27T00:18:46;98510.31;;;9.12;84.45
58668;BME280;59852;43.086;25.634;2023-04-27T00:21:11;98512.72;;;9.15;84.32
58668;BME280;59852;43.086;25.634;2023-04-27T00:23:36;98515.13;;;9.18;85.13
58668;BME280;59852;43.086;25.634;2023-04-27T00:26:02;98508.03;;;9.08;84.27
58668;BME280;59852;43.086;25.634;2023-04-27T00:28:27;98520.25;;;9.07;84.57
58668;BME280;59852;43.086;25.634;2023-04-27T00:30:52;98527.94;;;9.22;83.85
58668;BME280;59852;43.086;25.634;2023-04-27T00:33:19;98532.84;;;9.13;83.93
58668;BME280;59852;43.086;25.634;2023-04-27T00:35:44;98526.72;;;9.14;84.43
58668;BME280;59852;43.086;25.634;2023-04-27T00:38:10;98536.84;;;9.06;85.26
58668;BME280;59852;43.086;25.634;2023-04-27T00:40:36;98534.09;;;9.20;84.01
58668;BME280;59852;43.086;25.634;2023-04-27T00:43:01;98533.50;;;9.17;84.39
58668;BME280;59852;43.086;25.634;2023-04-27T00:45:26;98535.66;;;9.23;84.20
58668;BME280;59852;43.086;25.634;2023-04-27T00:47:52;98540.50;;;9.16;84.39
58668;BME280;59852;43.086;25.634;2023-04-27T00:50:18;98537.78;;;9.05;84.40
58668;BME280;59852;43.086;25.634;2023-04-27T00:52:50;98533.50;;;9.17;83.65
58668;BME280;59852;43.086;25.634;2023-04-27T00:55:16;98537.03;;;9.03;85.07
58668;BME280;59852;43.086;25.634;2023-04-27T00:57:41;98544.13;;;9.01;83.93
58668;BME280;59852;43.086;25.634;2023-04-27T01:00:07;98543.19;;;9.28;82.22
58668;BME280;59852;43.086;25.634;2023-04-27T01:02:35;98544.34;;;8.98;82.98
58668;BME280;59852;43.086;25.634;2023-04-27T01:05:01;98555.09;;;8.94;83.30
58668;BME280;59852;43.086;25.634;2023-04-27T01:07:27;98556.44;;;8.99;84.14
58668;BME280;59852;43.086;25.634;2023-04-27T01:09:52;98559.47;;;8.93;83.88
58668;BME280;59852;43.086;25.634;2023-04-27T01:12:17;98566.44;;;8.80;84.24
58668;BME280;59852;43.086;25.634;2023-04-27T01:14:42;98561.56;;;9.01;83.04
58668;BME280;59852;43.086;25.634;2023-04-27T01:17:08;98573.44;;;8.92;85.98
58668;BME280;59852;43.086;25.634;2023-04-27T01:19:33;98571.88;;;8.89;84.18
58668;BME280;59852;43.086;25.634;2023-04-27T01:22:00;98581.69;;;8.86;85.87
58668;BME280;59852;43.086;25.634;2023-04-27T01:24:25;98577.94;;;9.03;84.17
58668;BME280;59852;43.086;25.634;2023-04-27T01:26:50;98584.59;;;8.81;84.94
58668;BME280;59852;43.086;25.634;2023-04-27T01:29:18;98595.25;;;8.78;84.45
58668;BME280;59852;43.086;25.634;2023-04-27T01:31:43;98595.03;;;8.81;84.91
58668;BME280;59852;43.086;25.634;2023-04-27T01:34:08;98600.69;;;8.88;85.57
58668;BME280;59852;43.086;25.634;2023-04-27T01:36:34;98607.88;;;8.45;89.75
58668;BME280;59852;43.086;25.634;2023-04-27T01:39:00;98607.06;;;8.30;90.35
58668;BME280;59852;43.086;25.634;2023-04-27T01:41:25;98610.16;;;8.76;87.78
58668;BME280;59852;43.086;25.634;2023-04-27T01:43:50;98605.91;;;8.48;87.00
58668;BME280;59852;43.086;25.634;2023-04-27T01:46:16;98614.00;;;8.71;85.75
58668;BME280;59852;43.086;25.634;2023-04-27T01:48:41;98612.75;;;8.37;86.38
58668;BME280;59852;43.086;25.634;2023-04-27T01:51:07;98611.00;;;8.37;85.58
58668;BME280;59852;43.086;25.634;2023-04-27T01:53:32;98617.50;;;8.16;85.32
58668;BME280;59852;43.086;25.634;2023-04-27T01:55:58;98615.94;;;8.13;86.75
58668;BME280;59852;43.086;25.634;2023-04-27T01:58:26;98618.75;;;8.10;83.07
58668;BME280;59852;43.086;25.634;2023-04-27T02:00:51;98616.31;;;7.52;83.99
58668;BME280;59852;43.086;25.634;2023-04-27T02:03:17;98615.84;;;7.59;84.60
58668;BME280;59852;43.086;25.634;2023-04-27T02:05:42;98622.19;;;8.11;85.32
58668;BME280;59852;43.086;25.634;2023-04-27T02:08:08;98621.88;;;8.15;84.76
58668;BME280;59852;43.086;25.634;2023-04-27T02:10:33;98627.28;;;8.26;83.24
58668;BME280;59852;43.086;25.634;2023-04-27T02:12:59;98631.63;;;8.40;81.84
58668;BME280;59852;43.086;25.634;2023-04-27T02:15:24;98627.94;;;8.57;79.64
58668;BME280;59852;43.086;25.634;2023-04-27T02:17:50;98624.75;;;8.39;79.95
58668;BME280;59852;43.086;25.634;2023-04-27T02:20:15;98629.16;;;8.10;81.46
58668;BME280;59852;43.086;25.634;2023-04-27T02:22:41;98624.31;;;8.18;80.24
58668;BME280;59852;43.086;25.634;2023-04-27T02:25:08;98632.25;;;8.17;81.95
58668;BME280;59852;43.086;25.634;2023-04-27T02:27:35;98627.94;;;8.16;81.35
58668;BME280;59852;43.086;25.634;2023-04-27T02:30:02;98626.38;;;8.13;80.71
58668;BME280;59852;43.086;25.634;2023-04-27T02:32:29;98622.72;;;8.16;80.34
58668;BME280;59852;43.086;25.634;2023-04-27T02:34:55;98618.13;;;7.92;79.79
58668;BME280;59852;43.086;25.634;2023-04-27T02:37:20;98627.09;;;7.88;78.57
58668;BME280;59852;43.086;25.634;2023-04-27T02:39:46;98623.25;;;7.94;77.63
58668;BME280;59852;43.086;25.634;2023-04-27T02:42:11;98630.06;;;7.96;77.73
58668;BME280;59852;43.086;25.634;2023-04-27T02:44:36;98640.22;;;8.14;77.59
58668;BME280;59852;43.086;25.634;2023-04-27T02:47:02;98635.91;;;7.86;78.08
58668;BME280;59852;43.086;25.634;2023-04-27T02:49:27;98637.13;;;7.80;76.98
58668;BME280;59852;43.086;25.634;2023-04-27T02:51:52;98641.94;;;7.86;78.57
58668;BME280;59852;43.086;25.634;2023-04-27T02:54:18;98642.72;;;7.88;78.83
58668;BME280;59852;43.086;25.634;2023-04-27T02:56:43;98640.00;;;7.90;78.39
58668;BME280;59852;43.086;25.634;2023-04-27T02:59:08;98637.41;;;7.90;77.63
58668;BME280;59852;43.086;25.634;2023-04-27T03:01:33;98641.03;;;7.87;79.42
58668;BME280;59852;43.086;25.634;2023-04-27T03:03:59;98641.88;;;7.73;78.78
58668;BME280;59852;43.086;25.634;2023-04-27T03:06:24;98646.97;;;7.75;79.26
58668;BME280;59852;43.086;25.634;2023-04-27T03:08:49;98648.19;;;7.55;79.61
58668;BME280;59852;43.086;25.634;2023-04-27T03:11:15;98649.94;;;7.55;79.61
58668;BME280;59852;43.086;25.634;2023-04-27T03:13:40;98658.44;;;7.58;81.26
58668;BME280;59852;43.086;25.634;2023-04-27T03:18:31;98659.63;;;7.81;80.42
58668;BME280;59852;43.086;25.634;2023-04-27T03:21:03;98665.22;;;7.61;81.10
58668;BME280;59852;43.086;25.634;2023-04-27T03:23:29;98671.25;;;7.61;78.45
58668;BME280;59852;43.086;25.634;2023-04-27T03:25:54;98669.38;;;7.63;79.74
58668;BME280;59852;43.086;25.634;2023-04-27T03:28:20;98675.16;;;7.83;79.34
58668;BME280;59852;43.086;25.634;2023-04-27T03:30:45;98678.88;;;7.64;81.66
58668;BME280;59852;43.086;25.634;2023-04-27T03:33:10;98678.03;;;7.64;80.85
58668;BME280;59852;43.086;25.634;2023-04-27T03:35:36;98685.00;;;7.63;81.50
58668;BME280;59852;43.086;25.634;2023-04-27T03:38:01;98691.44;;;7.72;81.27
58668;BME280;59852;43.086;25.634;2023-04-27T03:40:26;98690.69;;;7.84;79.98
58668;BME280;59852;43.086;25.634;2023-04-27T03:42:52;98695.16;;;7.96;79.96
58668;BME280;59852;43.086;25.634;2023-04-27T03:45:17;98695.06;;;7.69;80.95
58668;BME280;59852;43.086;25.634;2023-04-27T03:47:43;98697.53;;;7.57;82.18
58668;BME280;59852;43.086;25.634;2023-04-27T03:50:08;98694.13;;;7.85;81.12
58668;BME280;59852;43.086;25.634;2023-04-27T03:52:34;98697.84;;;7.81;81.66
58668;BME280;59852;43.086;25.634;2023-04-27T03:54:59;98701.75;;;7.73;79.94
58668;BME280;59852;43.086;25.634;2023-04-27T03:57:25;98698.88;;;7.78;79.53
58668;BME280;59852;43.086;25.634;2023-04-27T03:59:50;98694.50;;;7.93;78.78
58668;BME280;59852;43.086;25.634;2023-04-27T04:02:15;98700.94;;;7.87;78.87
58668;BME280;59852;43.086;25.634;2023-04-27T04:04:41;98703.16;;;7.79;80.46
58668;BME280;59852;43.086;25.634;2023-04-27T04:07:06;98709.94;;;7.82;80.03
58668;BME280;59852;43.086;25.634;2023-04-27T04:09:31;98709.47;;;7.75;79.47
58668;BME280;59852;43.086;25.634;2023-04-27T04:11:57;98709.63;;;7.86;80.51
58668;BME280;59852;43.086;25.634;2023-04-27T04:14:22;98707.13;;;7.85;80.72
58668;BME280;59852;43.086;25.634;2023-04-27T04:16:47;98714.97;;;7.70;80.97
58668;BME280;59852;43.086;25.634;2023-04-27T04:19:13;98721.53;;;7.76;80.53
58668;BME280;59852;43.086;25.634;2023-04-27T04:21:38;98720.63;;;7.63;82.15
58668;BME280;59852;43.086;25.634;2023-04-27T04:24:03;98724.16;;;7.62;83.50
58668;BME280;59852;43.086;25.634;2023-04-27T04:26:29;98721.00;;;7.71;83.69
58668;BME280;59852;43.086;25.634;2023-04-27T04:28:55;98724.69;;;7.67;83.92
58668;BME280;59852;43.086;25.634;2023-04-27T04:31:21;98731.13;;;7.61;82.35
58668;BME280;59852;43.086;25.634;2023-04-27T04:33:47;98724.38;;;7.87;81.14
58668;BME280;59852;43.086;25.634;2023-04-27T04:36:12;98719.22;;;7.71;82.35
58668;BME280;59852;43.086;25.634;2023-04-27T04:38:38;98723.41;;;7.74;84.32
58668;BME280;59852;43.086;25.634;2023-04-27T04:41:03;98732.25;;;7.86;84.39
58668;BME280;59852;43.086;25.634;2023-04-27T04:43:29;98727.81;;;7.88;81.29
58668;BME280;59852;43.086;25.634;2023-04-27T04:45:54;98730.13;;;7.78;80.29
58668;BME280;59852;43.086;25.634;2023-04-27T04:48:19;98727.03;;;7.71;81.62
58668;BME280;59852;43.086;25.634;2023-04-27T04:50:46;98739.75;;;7.76;82.04
58668;BME280;59852;43.086;25.634;2023-04-27T04:53:11;98746.00;;;7.73;78.07
58668;BME280;59852;43.086;25.634;2023-04-27T04:55:37;98740.28;;;7.97;79.88
58668;BME280;59852;43.086;25.634;2023-04-27T04:58:02;98737.84;;;7.94;82.31
58668;BME280;59852;43.086;25.634;2023-04-27T05:00:27;98742.50;;;7.89;83.04
58668;BME280;59852;43.086;25.634;2023-04-27T05:02:53;98742.50;;;7.89;84.60
58668;BME280;59852;43.086;25.634;2023-04-27T05:05:19;98744.81;;;7.79;84.96
58668;BME280;59852;43.086;25.634;2023-04-27T05:07:44;98750.56;;;8.13;82.46
58668;BME280;59852;43.086;25.634;2023-04-27T05:10:09;98746.66;;;8.05;80.97
58668;BME280;59852;43.086;25.634;2023-04-27T05:12:35;98756.25;;;8.19;77.77
58668;BME280;59852;43.086;25.634;2023-04-27T05:15:00;98756.34;;;8.18;77.71
58668;BME280;59852;43.086;25.634;2023-04-27T05:17:26;98747.41;;;8.22;79.77
58668;BME280;59852;43.086;25.634;2023-04-27T05:19:51;98743.22;;;7.91;79.78
58668;BME280;59852;43.086;25.634;2023-04-27T05:22:16;98759.13;;;8.00;81.14
58668;BME280;59852;43.086;25.634;2023-04-27T05:24:42;98753.00;;;8.30;79.09
58668;BME280;59852;43.086;25.634;2023-04-27T05:27:07;98758.31;;;8.28;82.01
58668;BME280;59852;43.086;25.634;2023-04-27T05:29:32;98759.78;;;8.04;81.77
58668;BME280;59852;43.086;25.634;2023-04-27T05:31:57;98764.16;;;7.45;82.93
58668;BME280;59852;43.086;25.634;2023-04-27T05:34:23;98759.69;;;7.77;83.95
58668;BME280;59852;43.086;25.634;2023-04-27T05:36:48;98763.72;;;7.97;83.02
58668;BME280;59852;43.086;25.634;2023-04-27T05:39:14;98765.53;;;7.95;84.81
58668;BME280;59852;43.086;25.634;2023-04-27T05:41:39;98767.34;;;7.50;84.13
58668;BME280;59852;43.086;25.634;2023-04-27T05:44:05;98764.53;;;7.97;83.65
58668;BME280;59852;43.086;25.634;2023-04-27T05:46:30;98770.19;;;8.04;82.42
58668;BME280;59852;43.086;25.634;2023-04-27T05:48:56;98771.50;;;8.11;82.40
58668;BME280;59852;43.086;25.634;2023-04-27T05:51:21;98769.06;;;7.94;78.54
58668;BME280;59852;43.086;25.634;2023-04-27T05:53:46;98776.91;;;8.08;81.17
58668;BME280;59852;43.086;25.634;2023-04-27T05:56:12;98775.59;;;8.29;80.90
58668;BME280;59852;43.086;25.634;2023-04-27T05:58:37;98785.19;;;8.00;80.57
58668;BME280;59852;43.086;25.634;2023-04-27T06:01:02;98780.47;;;8.07;82.02
58668;BME280;59852;43.086;25.634;2023-04-27T06:03:28;98784.00;;;7.62;80.84
58668;BME280;59852;43.086;25.634;2023-04-27T06:05:54;98791.22;;;8.01;79.83
58668;BME280;59852;43.086;25.634;2023-04-27T06:08:20;98791.16;;;8.17;80.29
58668;BME280;59852;43.086;25.634;2023-04-27T06:10:45;98788.81;;;7.98;79.34
58668;BME280;59852;43.086;25.634;2023-04-27T06:13:10;98789.38;;;8.03;76.71
58668;BME280;59852;43.086;25.634;2023-04-27T06:15:36;98793.56;;;8.20;76.60
58668;BME280;59852;43.086;25.634;2023-04-27T06:18:01;98788.38;;;7.61;76.62
58668;BME280;59852;43.086;25.634;2023-04-27T06:20:27;98792.41;;;7.95;76.87
58668;BME280;59852;43.086;25.634;2023-04-27T06:22:52;98793.47;;;8.07;78.22
58668;BME280;59852;43.086;25.634;2023-04-27T06:25:17;98787.72;;;8.45;76.62
58668;BME280;59852;43.086;25.634;2023-04-27T06:27:43;98783.59;;;8.55;76.47
58668;BME280;59852;43.086;25.634;2023-04-27T06:30:08;98782.75;;;8.54;75.04
58668;BME280;59852;43.086;25.634;2023-04-27T06:32:33;98793.31;;;8.39;74.01
58668;BME280;59852;43.086;25.634;2023-04-27T06:34:59;98788.53;;;8.45;76.97
58668;BME280;59852;43.086;25.634;2023-04-27T06:37:24;98780.72;;;8.45;76.56
58668;BME280;59852;43.086;25.634;2023-04-27T06:39:50;98792.56;;;8.51;73.40
58668;BME280;59852;43.086;25.634;2023-04-27T06:42:15;98789.47;;;8.44;72.72
58668;BME280;59852;43.086;25.634;2023-04-27T06:44:41;98789.31;;;8.47;74.35
58668;BME280;59852;43.086;25.634;2023-04-27T06:47:06;98798.31;;;8.42;71.38
58668;BME280;59852;43.086;25.634;2023-04-27T06:49:31;98799.91;;;8.44;72.19
58668;BME280;59852;43.086;25.634;2023-04-27T06:51:57;98796.72;;;8.53;73.42
58668;BME280;59852;43.086;25.634;2023-04-27T06:54:22;98802.22;;;8.34;77.59
58668;BME280;59852;43.086;25.634;2023-04-27T06:56:47;98798.22;;;8.43;74.59
58668;BME280;59852;43.086;25.634;2023-04-27T06:59:13;98799.84;;;8.46;73.89
58668;BME280;59852;43.086;25.634;2023-04-27T07:01:38;98798.22;;;8.57;74.69
58668;BME280;59852;43.086;25.634;2023-04-27T07:04:04;98802.50;;;8.58;71.92
58668;BME280;59852;43.086;25.634;2023-04-27T07:06:29;98809.66;;;8.69;72.47
58668;BME280;59852;43.086;25.634;2023-04-27T07:08:55;98811.16;;;8.45;78.87
58668;BME280;59852;43.086;25.634;2023-04-27T07:11:21;98812.66;;;8.34;81.46
58668;BME280;59852;43.086;25.634;2023-04-27T07:13:46;98816.47;;;8.43;81.10
58668;BME280;59852;43.086;25.634;2023-04-27T07:16:11;98809.97;;;8.50;73.24
58668;BME280;59852;43.086;25.634;2023-04-27T07:18:37;98810.53;;;8.41;74.97
58668;BME280;59852;43.086;25.634;2023-04-27T07:21:02;98812.50;;;8.38;74.80
58668;BME280;59852;43.086;25.634;2023-04-27T07:23:27;98809.56;;;8.14;74.66
58668;BME280;59852;43.086;25.634;2023-04-27T07:25:53;98812.09;;;8.29;74.45
58668;BME280;59852;43.086;25.634;2023-04-27T07:28:18;98807.06;;;8.26;73.48
58668;BME280;59852;43.086;25.634;2023-04-27T07:30:44;98820.38;;;8.50;75.93
58668;BME280;59852;43.086;25.634;2023-04-27T07:33:09;98812.00;;;8.45;75.41
58668;BME280;59852;43.086;25.634;2023-04-27T07:35:35;98818.13;;;8.30;76.76
58668;BME280;59852;43.086;25.634;2023-04-27T07:38:01;98822.63;;;8.42;75.06
58668;BME280;59852;43.086;25.634;2023-04-27T07:40:27;98818.06;;;8.46;75.20
58668;BME280;59852;43.086;25.634;2023-04-27T07:42:52;98818.69;;;8.63;74.94
58668;BME280;59852;43.086;25.634;2023-04-27T07:45:18;98825.88;;;8.60;73.26
58668;BME280;59852;43.086;25.634;2023-04-27T07:47:43;98820.38;;;8.08;73.48
58668;BME280;59852;43.086;25.634;2023-04-27T07:50:09;98822.22;;;8.34;76.59
58668;BME280;59852;43.086;25.634;2023-04-27T07:52:35;98818.72;;;8.49;73.40
58668;BME280;59852;43.086;25.634;2023-04-27T07:55:01;98814.97;;;8.68;72.86
58668;BME280;59852;43.086;25.634;2023-04-27T07:57:27;98825.31;;;8.41;74.96
58668;BME280;59852;43.086;25.634;2023-04-27T07:59:53;98831.19;;;8.44;74.80
58668;BME280;59852;43.086;25.634;2023-04-27T08:02:18;98833.28;;;8.23;74.45
58668;BME280;59852;43.086;25.634;2023-04-27T08:04:43;98831.75;;;8.49;75.16
58668;BME280;59852;43.086;25.634;2023-04-27T08:07:09;98841.72;;;8.57;75.74
58668;BME280;59852;43.086;25.634;2023-04-27T08:09:34;98840.31;;;8.66;76.58
58668;BME280;59852;43.086;25.634;2023-04-27T08:11:59;98839.84;;;8.59;77.12
58668;BME280;59852;43.086;25.634;2023-04-27T08:14:27;98832.97;;;8.58;76.17
58668;BME280;59852;43.086;25.634;2023-04-27T08:16:52;98842.91;;;8.66;74.37
58668;BME280;59852;43.086;25.634;2023-04-27T08:19:17;98844.84;;;8.33;74.19
58668;BME280;59852;43.086;25.634;2023-04-27T08:21:43;98835.09;;;8.66;73.80
58668;BME280;59852;43.086;25.634;2023-04-27T08:24:08;98839.44;;;8.65;73.01
58668;BME280;59852;43.086;25.634;2023-04-27T08:26:33;98839.22;;;8.55;73.11
58668;BME280;59852;43.086;25.634;2023-04-27T08:28:59;98835.91;;;8.80;73.52
58668;BME280;59852;43.086;25.634;2023-04-27T08:31:25;98837.47;;;8.83;72.33
58668;BME280;59852;43.086;25.634;2023-04-27T08:33:53;98841.50;;;8.74;73.91
58668;BME280;59852;43.086;25.634;2023-04-27T08:36:22;98836.94;;;8.78;75.65
58668;BME280;59852;43.086;25.634;2023-04-27T08:38:51;98830.94;;;8.90;74.22
58668;BME280;59852;43.086;25.634;2023-04-27T08:41:17;98839.84;;;8.59;73.85
58668;BME280;59852;43.086;25.634;2023-04-27T08:43:43;98831.28;;;8.57;76.70
58668;BME280;59852;43.086;25.634;2023-04-27T08:46:09;98838.88;;;8.74;76.20
58668;BME280;59852;43.086;25.634;2023-04-27T08:48:35;98838.47;;;8.39;74.43
58668;BME280;59852;43.086;25.634;2023-04-27T08:51:00;98833.13;;;8.69;74.60
58668;BME280;59852;43.086;25.634;2023-04-27T08:53:26;98835.28;;;9.04;75.04
58668;BME280;59852;43.086;25.634;2023-04-27T08:55:52;98834.97;;;8.81;75.58
58668;BME280;59852;43.086;25.634;2023-04-27T08:58:19;98833.31;;;8.66;74.99
58668;BME280;59852;43.086;25.634;2023-04-27T09:00:44;98833.25;;;8.39;72.72
58668;BME280;59852;43.086;25.634;2023-04-27T09:03:17;98837.97;;;8.61;73.09
58668;BME280;59852;43.086;25.634;2023-04-27T09:05:47;98835.66;;;8.42;71.79
58668;BME280;59852;43.086;25.634;2023-04-27T09:08:12;98821.47;;;8.75;72.05
58668;BME280;59852;43.086;25.634;2023-04-27T09:10:45;98825.34;;;8.96;71.33
58668;BME280;59852;43.086;25.634;2023-04-27T09:13:10;98828.38;;;8.76;70.78
58668;BME280;59852;43.086;25.634;2023-04-27T09:15:48;98820.34;;;8.79;70.95
58668;BME280;59852;43.086;25.634;2023-04-27T09:18:15;98819.06;;;8.72;75.65
58668;BME280;59852;43.086;25.634;2023-04-27T09:20:50;98823.06;;;8.77;72.19
58668;BME280;59852;43.086;25.634;2023-04-27T09:26:00;98818.63;;;9.06;71.37
58668;BME280;59852;43.086;25.634;2023-04-27T09:28:26;98820.31;;;9.20;70.28
58668;BME280;59852;43.086;25.634;2023-04-27T09:30:52;98812.81;;;9.15;70.29
58668;BME280;59852;43.086;25.634;2023-04-27T09:33:22;98813.97;;;9.24;71.64
58668;BME280;59852;43.086;25.634;2023-04-27T09:35:48;98816.03;;;9.46;68.99
58668;BME280;59852;43.086;25.634;2023-04-27T09:38:14;98814.19;;;9.34;70.05
58668;BME280;59852;43.086;25.634;2023-04-27T09:40:40;98810.69;;;9.08;69.65
58668;BME280;59852;43.086;25.634;2023-04-27T09:43:06;98807.84;;;9.25;71.12
58668;BME280;59852;43.086;25.634;2023-04-27T09:45:34;98812.28;;;9.23;70.11
58668;BME280;59852;43.086;25.634;2023-04-27T09:48:01;98814.53;;;9.42;70.34
58668;BME280;59852;43.086;25.634;2023-04-27T09:50:28;98802.84;;;9.08;71.00
58668;BME280;59852;43.086;25.634;2023-04-27T09:52:53;98806.88;;;9.66;68.45
58668;BME280;59852;43.086;25.634;2023-04-27T09:55:20;98802.94;;;9.86;68.45
58668;BME280;59852;43.086;25.634;2023-04-27T09:57:57;98810.38;;;9.52;68.00
58668;BME280;59852;43.086;25.634;2023-04-27T10:03:04;98796.81;;;9.47;69.96
58668;BME280;59852;43.086;25.634;2023-04-27T10:05:34;98798.09;;;9.67;66.62
58668;BME280;59852;43.086;25.634;2023-04-27T10:08:02;98796.44;;;9.66;67.84
58668;BME280;59852;43.086;25.634;2023-04-27T10:10:29;98794.28;;;9.85;68.74
58668;BME280;59852;43.086;25.634;2023-04-27T10:12:56;98793.63;;;9.02;69.20
58668;BME280;59852;43.086;25.634;2023-04-27T10:15:24;98796.34;;;9.28;69.59
58668;BME280;59852;43.086;25.634;2023-04-27T10:17:51;98794.94;;;9.49;67.99
58668;BME280;59852;43.086;25.634;2023-04-27T10:20:29;98791.00;;;9.16;68.92
58668;BME280;59852;43.086;25.634;2023-04-27T10:22:55;98795.19;;;9.71;69.89
58668;BME280;59852;43.086;25.634;2023-04-27T10:25:27;98792.78;;;10.19;69.07
58668;BME280;59852;43.086;25.634;2023-04-27T10:27:54;98796.59;;;9.50;68.20
58668;BME280;59852;43.086;25.634;2023-04-27T10:30:21;98794.84;;;9.63;67.44
58668;BME280;59852;43.086;25.634;2023-04-27T10:32:54;98788.75;;;10.28;69.60
58668;BME280;59852;43.086;25.634;2023-04-27T10:35:20;98790.06;;;9.83;67.87
58668;BME280;59852;43.086;25.634;2023-04-27T10:37:46;98786.63;;;10.46;67.51
58668;BME280;59852;43.086;25.634;2023-04-27T10:40:12;98780.34;;;10.48;65.65
58668;BME280;59852;43.086;25.634;2023-04-27T10:42:39;98783.16;;;10.58;65.75
58668;BME280;59852;43.086;25.634;2023-04-27T10:45:04;98790.91;;;10.09;66.63
58668;BME280;59852;43.086;25.634;2023-04-27T10:47:41;98797.28;;;9.66;69.75
58668;BME280;59852;43.086;25.634;2023-04-27T10:50:07;98794.19;;;10.25;68.57
58668;BME280;59852;43.086;25.634;2023-04-27T10:52:35;98783.94;;;10.71;67.17
58668;BME280;59852;43.086;25.634;2023-04-27T10:55:11;98780.59;;;10.82;66.09
58668;BME280;59852;43.086;25.634;2023-04-27T11:00:20;98775.47;;;11.04;65.70
58668;BME280;59852;43.086;25.634;2023-04-27T11:02:46;98782.69;;;11.01;65.49
58668;BME280;59852;43.086;25.634;2023-04-27T11:05:25;98765.19;;;10.77;67.04
58668;BME280;59852;43.086;25.634;2023-04-27T11:08:05;98772.00;;;11.28;65.04
58668;BME280;59852;43.086;25.634;2023-04-27T11:10:31;98766.88;;;10.78;66.50
58668;BME280;59852;43.086;25.634;2023-04-27T11:12:56;98766.66;;;11.75;65.50
58668;BME280;59852;43.086;25.634;2023-04-27T11:15:22;98759.81;;;12.08;63.18
58668;BME280;59852;43.086;25.634;2023-04-27T11:17:47;98765.56;;;12.02;64.51
58668;BME280;59852;43.086;25.634;2023-04-27T11:20:13;98756.84;;;12.46;65.12
58668;BME280;59852;43.086;25.634;2023-04-27T11:22:44;98758.06;;;12.42;63.25
58668;BME280;59852;43.086;25.634;2023-04-27T11:25:10;98760.47;;;11.76;62.21
58668;BME280;59852;43.086;25.634;2023-04-27T11:27:36;98763.09;;;11.76;62.80
58668;BME280;59852;43.086;25.634;2023-04-27T11:30:02;98757.66;;;12.47;61.79
58668;BME280;59852;43.086;25.634;2023-04-27T11:32:28;98764.47;;;11.82;62.92
58668;BME280;59852;43.086;25.634;2023-04-27T11:34:53;98758.06;;;12.20;61.75
58668;BME280;59852;43.086;25.634;2023-04-27T11:37:22;98756.72;;;11.92;63.82
58668;BME280;59852;43.086;25.634;2023-04-27T11:39:49;98760.44;;;12.12;63.66
58668;BME280;59852;43.086;25.634;2023-04-27T11:45:02;98763.53;;;11.59;63.56
58668;BME280;59852;43.086;25.634;2023-04-27T11:47:30;98757.31;;;11.84;64.34
58668;BME280;59852;43.086;25.634;2023-04-27T11:49:57;98754.09;;;11.92;63.78
58668;BME280;59852;43.086;25.634;2023-04-27T11:52:33;98762.69;;;11.94;62.83
58668;BME280;59852;43.086;25.634;2023-04-27T11:55:00;98758.38;;;11.82;63.82
58668;BME280;59852;43.086;25.634;2023-04-27T11:57:26;98762.84;;;11.68;64.18
58668;BME280;59852;43.086;25.634;2023-04-27T11:59:52;98761.41;;;11.64;64.23
58668;BME280;59852;43.086;25.634;2023-04-27T12:02:18;98758.91;;;11.63;65.28
58668;BME280;59852;43.086;25.634;2023-04-27T12:04:46;98768.69;;;11.72;66.03
58668;BME280;59852;43.086;25.634;2023-04-27T12:07:12;98756.53;;;11.71;65.87
58668;BME280;59852;43.086;25.634;2023-04-27T12:09:37;98762.66;;;11.83;65.71
58668;BME280;59852;43.086;25.634;2023-04-27T12:12:03;98759.75;;;11.74;65.39
58668;BME280;59852;43.086;25.634;2023-04-27T12:14:28;98756.59;;;11.93;65.31
58668;BME280;59852;43.086;25.634;2023-04-27T12:16:53;98769.34;;;11.98;66.53
58668;BME280;59852;43.086;25.634;2023-04-27T12:19:19;98769.47;;;12.07;65.64
58668;BME280;59852;43.086;25.634;2023-04-27T12:21:44;98766.03;;;12.07;64.65
58668;BME280;59852;43.086;25.634;2023-04-27T12:24:10;98761.84;;;12.16;64.98
58668;BME280;59852;43.086;25.634;2023-04-27T12:26:36;98762.69;;;12.16;65.53
58668;BME280;59852;43.086;25.634;2023-04-27T12:29:01;98759.47;;;12.01;65.93
58668;BME280;59852;43.086;25.634;2023-04-27T12:31:28;98753.88;;;12.28;65.75
58668;BME280;59852;43.086;25.634;2023-04-27T12:33:53;98755.19;;;11.54;67.30
58668;BME280;59852;43.086;25.634;2023-04-27T12:36:19;98753.19;;;11.69;67.85
58668;BME280;59852;43.086;25.634;2023-04-27T12:38:44;98752.50;;;11.78;69.90
58668;BME280;59852;43.086;25.634;2023-04-27T12:41:09;98746.75;;;12.19;66.29
58668;BME280;59852;43.086;25.634;2023-04-27T12:43:35;98744.69;;;12.34;64.68
58668;BME280;59852;43.086;25.634;2023-04-27T12:46:02;98736.69;;;12.47;63.85
58668;BME280;59852;43.086;25.634;2023-04-27T12:48:27;98738.03;;;12.41;64.09
58668;BME280;59852;43.086;25.634;2023-04-27T12:50:52;98742.53;;;11.94;65.86
58668;BME280;59852;43.086;25.634;2023-04-27T12:53:18;98739.66;;;11.86;66.03
58668;BME280;59852;43.086;25.634;2023-04-27T12:55:43;98732.63;;;12.54;63.72
58668;BME280;59852;43.086;25.634;2023-04-27T12:58:09;98730.38;;;12.27;64.49
58668;BME280;59852;43.086;25.634;2023-04-27T13:00:34;98732.28;;;12.36;63.90
58668;BME280;59852;43.086;25.634;2023-04-27T13:02:59;98734.09;;;12.02;63.68
58668;BME280;59852;43.086;25.634;2023-04-27T13:05:25;98728.97;;;12.12;64.38